Miley Memorial field
KBPI : now visible

Airfield :











YOU CAN JOIN US ON...

 
LOGIN :

Register | Disclaimer

   EN    FR    IT 

 









Legend :    VFR   Marginal VFR   IFR   Intensive IFR   Very Intensive IFR
Visi :
Ceiling :
>= 8 km
>= 3000ft
5 to 8 km
1000 to 3000 ft
1500m to 5 km
500 to 1000 ft
800 to 1500m
200 to 500 ft
< 800m
< 200 ft
Symbols :   Thunderstorms  Fog  Heavy snow  Heavy precipitations  Wind > 20 kt







- Airport Elevation : 6990 ft


KBPI - Miley Memorial field

CURRENT METAR :
  • 260253Z AUTO 04007KT 10SM CLR 17/M04 A3013 RMK AO2 SLP110 T01671039 53008

EXPIRED METARs :
  • 260153Z AUTO 31015KT 10SM CLR 20/M03 A3011 RMK AO2 PK WND 31033/0104 SLP102 T02001033
  • 260053Z AUTO 31020G36KT 10SM CLR 23/M04 A3009 RMK AO2 PK WND 29038/0004 SLP102 T02281039

TAF KBPI
Valid from the 26 at 00:00 until the 27 at 00:00 UTC


252320Z 2600/2624 31022G32KT P6SM SKC
FM260400 32015G24KT P6SM SKC
FM260700 33012KT P6SM SKC
FM261300 35007KT P6SM SKC
FM261800 31014G24KT P6SM SKC
No reported NOTAMs for that airfield.



MET'MAP, your aeronautical weather chart ! - Copyright ORBIFLY December 2007 - Disclaimer

ORBIFLY MET'MAP TEAM :

Programming & Development : Alexandra Zaïnal
Concept & Development : Baudouin d'Aumeries
Co-Development & Prog : Marc-Olivier Méhu
Technical & hardware support : Manuel Goepfert

Contact : metmap@orbifly.com




SOURCES & CREDITS :

   NOAA       Earth
Advisory